createdAt,value
2018-08-30T00:01:16.392Z,9.60
2018-08-30T00:03:44.644Z,9.30
2018-08-30T00:06:13.041Z,11.80
2018-08-30T00:08:41.325Z,9.70
2018-08-30T00:11:09.657Z,8.10
2018-08-30T00:13:37.993Z,9.50
2018-08-30T00:16:06.557Z,7.63
2018-08-30T00:18:34.833Z,7.67
2018-08-30T00:21:03.132Z,7.70
2018-08-30T00:23:31.620Z,8.87
2018-08-30T00:25:59.985Z,9.67
2018-08-30T00:28:28.302Z,9.53
2018-08-30T00:30:56.581Z,9.57
2018-08-30T00:33:24.885Z,11.67
2018-08-30T00:35:53.171Z,10.57
2018-08-30T00:38:21.612Z,10.27
2018-08-30T00:40:49.896Z,10.73
2018-08-30T00:43:18.162Z,10.10
2018-08-30T00:45:46.456Z,11.87
2018-08-30T00:48:14.736Z,11.33
2018-08-30T00:50:43.066Z,12.90
2018-08-30T00:53:11.339Z,13.93
2018-08-30T00:55:40.108Z,13.13
2018-08-30T00:58:08.408Z,14.07
2018-08-30T01:00:36.789Z,17.20
2018-08-30T01:03:05.120Z,14.80
2018-08-30T01:05:33.381Z,18.50
2018-08-30T01:08:01.674Z,16.37
2018-08-30T01:10:30.125Z,18.87
2018-08-30T01:12:58.478Z,20.53
2018-08-30T01:15:27.476Z,17.90
2018-08-30T01:18:00.448Z,17.30
2018-08-30T01:20:28.850Z,24.00
2018-08-30T01:22:57.157Z,25.13
2018-08-30T01:25:25.446Z,25.40
2018-08-30T01:27:53.872Z,26.00
2018-08-30T01:30:22.150Z,23.63
2018-08-30T01:32:50.509Z,20.27
2018-08-30T01:35:18.816Z,21.53
2018-08-30T01:37:47.091Z,23.00
2018-08-30T01:40:15.417Z,24.87
2018-08-30T01:42:43.693Z,24.80
2018-08-30T01:45:12.023Z,26.17
2018-08-30T01:47:40.318Z,25.57
2018-08-30T01:50:08.673Z,29.43
2018-08-30T01:52:36.979Z,28.97
2018-08-30T01:55:05.281Z,26.00
2018-08-30T01:57:33.555Z,26.87
2018-08-30T02:00:01.841Z,24.87
2018-08-30T02:02:30.142Z,23.97
2018-08-30T02:04:58.445Z,23.13
2018-08-30T02:07:26.707Z,24.00
2018-08-30T02:09:54.972Z,25.90
2018-08-30T02:12:23.296Z,27.67
2018-08-30T02:14:51.594Z,26.40
2018-08-30T02:17:19.844Z,29.33
2018-08-30T02:19:48.177Z,30.73
2018-08-30T02:22:16.460Z,35.33
2018-08-30T02:24:44.781Z,26.50
2018-08-30T02:27:13.101Z,30.47
2018-08-30T02:29:41.394Z,30.97
2018-08-30T02:32:09.769Z,32.63
2018-08-30T02:34:38.151Z,38.27
2018-08-30T02:37:06.613Z,36.27
2018-08-30T02:39:34.889Z,34.30
2018-08-30T02:42:03.217Z,38.30
2018-08-30T02:44:31.597Z,38.70
2018-08-30T02:46:59.895Z,36.97
2018-08-30T02:49:28.215Z,34.37
2018-08-30T02:51:56.481Z,41.20
2018-08-30T02:54:24.758Z,37.50
2018-08-30T02:56:53.080Z,39.27
2018-08-30T02:59:21.367Z,39.80
2018-08-30T03:01:49.649Z,40.70
2018-08-30T03:04:17.945Z,37.30
2018-08-30T03:06:46.283Z,40.40
2018-08-30T03:09:14.602Z,39.13
2018-08-30T03:11:42.899Z,42.23
2018-08-30T03:14:11.263Z,37.00
2018-08-30T03:16:39.557Z,38.93
2018-08-30T03:19:08.034Z,37.47
2018-08-30T03:21:36.321Z,41.10
2018-08-30T03:24:04.625Z,41.50
2018-08-30T03:26:33.247Z,43.33
2018-08-30T03:29:01.485Z,41.70
2018-08-30T03:31:29.767Z,41.80
2018-08-30T03:33:58.055Z,38.47
2018-08-30T03:36:26.321Z,37.60
2018-08-30T03:38:54.598Z,39.80
2018-08-30T03:41:22.905Z,38.10
2018-08-30T03:43:51.194Z,40.43
2018-08-30T03:46:19.502Z,44.80
2018-08-30T03:48:47.816Z,47.20
2018-08-30T03:51:16.426Z,40.87
2018-08-30T03:53:44.711Z,44.10
2018-08-30T03:56:13.642Z,41.80
2018-08-30T03:58:41.959Z,42.73
2018-08-30T04:01:10.226Z,41.30
2018-08-30T04:03:38.526Z,46.90
2018-08-30T04:06:06.929Z,48.47
2018-08-30T04:08:35.394Z,44.70
2018-08-30T04:11:03.685Z,50.60
2018-08-30T04:13:32.035Z,42.87
2018-08-30T04:16:00.262Z,49.30
2018-08-30T04:18:28.607Z,41.07
2018-08-30T04:20:57.460Z,46.70
2018-08-30T04:23:25.717Z,45.80
2018-08-30T04:25:54.085Z,46.33
2018-08-30T04:28:22.417Z,46.17
2018-08-30T04:30:51.098Z,46.53
2018-08-30T04:33:19.391Z,47.30
2018-08-30T04:35:47.665Z,52.40
2018-08-30T04:38:15.965Z,43.67
2018-08-30T04:40:44.322Z,45.10
2018-08-30T04:43:12.733Z,44.70
2018-08-30T04:45:41.025Z,49.13
2018-08-30T04:48:09.315Z,51.70
2018-08-30T04:50:37.612Z,48.77
2018-08-30T04:53:05.933Z,47.07
2018-08-30T04:55:34.277Z,47.60
2018-08-30T04:58:02.621Z,44.10
2018-08-30T05:00:31.035Z,49.57
2018-08-30T05:02:59.348Z,44.37
2018-08-30T05:05:27.667Z,43.57
2018-08-30T05:07:55.989Z,41.70
2018-08-30T05:10:24.307Z,43.73
2018-08-30T05:12:52.737Z,46.63
2018-08-30T05:15:21.023Z,44.53
2018-08-30T05:17:49.401Z,46.57
2018-08-30T05:20:17.701Z,45.57
2018-08-30T05:22:45.994Z,42.80
2018-08-30T05:25:14.319Z,42.70
2018-08-30T05:27:42.745Z,44.10
2018-08-30T05:30:11.109Z,46.53
2018-08-30T05:32:39.419Z,44.13
2018-08-30T05:35:07.703Z,49.60
2018-08-30T05:37:36.001Z,42.93
2018-08-30T05:40:04.366Z,41.57
2018-08-30T05:42:32.674Z,44.43
2018-08-30T05:45:00.967Z,39.03
2018-08-30T05:47:29.297Z,44.07
2018-08-30T05:49:57.790Z,41.70
2018-08-30T05:52:26.198Z,49.27
2018-08-30T05:54:54.495Z,42.93
2018-08-30T05:57:22.772Z,45.33
2018-08-30T05:59:51.039Z,43.17
2018-08-30T06:02:19.433Z,42.17
2018-08-30T06:04:47.762Z,44.60
2018-08-30T06:07:16.085Z,42.87
2018-08-30T06:09:44.386Z,50.13
2018-08-30T06:12:12.876Z,40.73
2018-08-30T06:14:41.182Z,44.60
2018-08-30T06:17:09.486Z,46.57
2018-08-30T06:19:37.949Z,43.53
2018-08-30T06:22:06.285Z,38.40
2018-08-30T06:24:34.602Z,40.33
2018-08-30T06:27:03.292Z,43.40
2018-08-30T06:29:31.541Z,41.70
2018-08-30T06:32:00.762Z,40.00
2018-08-30T06:34:29.590Z,41.70
2018-08-30T06:36:57.886Z,41.13
2018-08-30T06:39:26.201Z,39.87
2018-08-30T06:41:54.492Z,39.37
2018-08-30T06:44:22.820Z,41.43
2018-08-30T06:46:51.273Z,41.33
2018-08-30T06:49:19.606Z,37.47
2018-08-30T06:51:47.900Z,40.97
2018-08-30T06:54:16.209Z,37.37
2018-08-30T06:56:44.490Z,43.83
2018-08-30T06:59:12.833Z,37.33
2018-08-30T07:01:41.232Z,40.50
2018-08-30T07:04:09.935Z,37.43
2018-08-30T07:06:38.221Z,30.67
2018-08-30T07:09:09.265Z,37.90
2018-08-30T07:11:37.553Z,38.13
2018-08-30T07:14:06.722Z,34.13
2018-08-30T07:16:35.070Z,40.23
2018-08-30T07:19:03.700Z,35.40
2018-08-30T07:21:32.498Z,37.83
2018-08-30T07:24:00.939Z,35.77
2018-08-30T07:26:29.352Z,27.63
2018-08-30T07:28:57.636Z,31.80
2018-08-30T07:31:25.936Z,31.57
2018-08-30T07:33:54.247Z,30.27
2018-08-30T07:36:22.551Z,24.23
2018-08-30T07:38:50.872Z,31.90
2018-08-30T07:41:19.138Z,24.90
2018-08-30T07:43:47.435Z,29.23
2018-08-30T07:46:15.740Z,30.13
2018-08-30T07:48:44.053Z,29.20
2018-08-30T07:51:13.537Z,26.37
2018-08-30T07:53:42.355Z,24.77
2018-08-30T07:56:10.785Z,24.60
2018-08-30T07:58:40.261Z,21.57
2018-08-30T08:01:09.705Z,20.40
2018-08-30T08:03:37.984Z,20.47
2018-08-30T08:06:06.330Z,21.43
2018-08-30T08:08:34.576Z,22.67
2018-08-30T08:11:02.958Z,16.47
2018-08-30T08:13:31.400Z,19.63
2018-08-30T08:15:59.680Z,16.60
2018-08-30T08:18:28.031Z,19.03
2018-08-30T08:20:56.305Z,13.30
2018-08-30T08:23:24.615Z,16.47
2018-08-30T08:25:52.909Z,14.77
2018-08-30T08:28:21.173Z,16.77
2018-08-30T08:30:49.479Z,13.67
2018-08-30T08:33:17.762Z,11.27
2018-08-30T08:35:46.045Z,13.10
2018-08-30T08:38:14.341Z,15.23
2018-08-30T08:40:42.733Z,16.40
2018-08-30T08:43:11.031Z,19.37
2018-08-30T08:45:39.334Z,12.40
2018-08-30T08:48:07.685Z,11.90
2018-08-30T08:50:35.969Z,13.13
2018-08-30T08:53:04.429Z,10.00
2018-08-30T08:55:32.790Z,14.67
2018-08-30T08:58:01.084Z,11.23
2018-08-30T09:00:29.382Z,10.63
2018-08-30T09:02:57.723Z,13.80
2018-08-30T09:05:25.973Z,10.97
2018-08-30T09:07:54.359Z,9.27
2018-08-30T09:10:22.857Z,11.10
2018-08-30T09:12:51.141Z,13.50
2018-08-30T09:15:19.446Z,12.30
2018-08-30T09:17:47.721Z,15.80
2018-08-30T09:20:16.009Z,8.67
2018-08-30T09:22:44.305Z,7.23
2018-08-30T09:25:12.573Z,7.10
2018-08-30T09:27:40.931Z,10.23
2018-08-30T09:30:09.225Z,8.13
2018-08-30T09:32:37.504Z,10.13
2018-08-30T09:35:06.277Z,8.33
2018-08-30T09:37:34.573Z,7.27
2018-08-30T09:40:02.979Z,4.80
2018-08-30T09:42:31.233Z,5.73
2018-08-30T09:44:59.633Z,5.97
2018-08-30T09:47:27.913Z,6.90
2018-08-30T09:49:56.165Z,7.50
2018-08-30T09:52:24.459Z,7.80
2018-08-30T09:54:52.717Z,8.30
2018-08-30T09:57:21.201Z,9.80
2018-08-30T09:59:49.355Z,9.70
2018-08-30T10:02:23.001Z,8.90
2018-08-30T10:04:51.374Z,8.00
2018-08-30T10:07:19.585Z,9.00
2018-08-30T10:09:47.870Z,7.57
2018-08-30T10:12:16.177Z,5.10
2018-08-30T10:14:44.469Z,6.27
2018-08-30T10:17:12.813Z,5.70
2018-08-30T10:19:41.223Z,9.00
2018-08-30T10:22:09.673Z,9.00
2018-08-30T10:24:38.101Z,8.40
2018-08-30T10:27:06.441Z,4.00
2018-08-30T10:29:34.735Z,6.70
2018-08-30T10:32:03.421Z,9.03
2018-08-30T10:34:31.695Z,6.07
2018-08-30T10:37:00.001Z,5.90
2018-08-30T10:39:28.405Z,12.50
2018-08-30T10:41:56.679Z,37.73
2018-08-30T10:44:24.973Z,25.27
2018-08-30T10:46:53.261Z,11.03
2018-08-30T10:49:21.579Z,10.77
2018-08-30T10:51:49.896Z,9.70
2018-08-30T10:54:18.189Z,5.83
2018-08-30T10:56:46.563Z,7.53
2018-08-30T10:59:14.902Z,10.27
2018-08-30T11:01:43.429Z,9.50
2018-08-30T11:04:11.746Z,3.90
2018-08-30T11:06:40.082Z,7.50
2018-08-30T11:09:09.541Z,4.67
2018-08-30T11:11:37.814Z,4.83
2018-08-30T11:14:06.130Z,8.13
2018-08-30T11:16:34.393Z,7.37
2018-08-30T11:19:02.807Z,4.27
2018-08-30T11:21:31.081Z,5.47
2018-08-30T11:23:59.378Z,4.93
2018-08-30T11:26:35.782Z,10.43
2018-08-30T11:29:04.853Z,9.70
2018-08-30T11:31:33.269Z,5.83
2018-08-30T11:34:01.583Z,7.67
2018-08-30T11:36:30.083Z,4.70
2018-08-30T11:38:58.550Z,6.03
2018-08-30T11:41:35.088Z,4.67
2018-08-30T11:44:03.361Z,10.23
2018-08-30T11:46:31.677Z,6.30
2018-08-30T11:48:59.954Z,5.40
2018-08-30T11:51:28.344Z,5.70
2018-08-30T11:53:56.620Z,6.70
2018-08-30T11:56:24.909Z,7.43
2018-08-30T11:58:53.241Z,6.43
2018-08-30T12:01:21.555Z,6.40
2018-08-30T12:03:49.877Z,8.37
2018-08-30T12:06:18.254Z,9.23
2018-08-30T12:08:46.573Z,10.93
2018-08-30T12:11:14.981Z,6.63
2018-08-30T12:13:43.257Z,5.97
2018-08-30T12:16:11.554Z,10.40
2018-08-30T12:18:39.854Z,9.67
2018-08-30T12:21:08.146Z,5.10
2018-08-30T12:23:36.441Z,5.60
2018-08-30T12:26:04.800Z,6.20
2018-08-30T12:28:33.629Z,8.03
2018-08-30T12:31:01.896Z,6.67
2018-08-30T12:33:30.267Z,4.73
2018-08-30T12:35:58.656Z,4.97
2018-08-30T12:38:26.923Z,7.70
2018-08-30T12:40:55.286Z,5.50
2018-08-30T12:43:23.637Z,6.30
2018-08-30T12:45:52.011Z,4.37
2018-08-30T12:48:20.311Z,11.47
2018-08-30T12:50:48.646Z,8.07
2018-08-30T12:53:17.027Z,6.63
2018-08-30T12:55:45.521Z,9.27
2018-08-30T12:58:13.762Z,7.40
2018-08-30T13:00:41.986Z,8.93
2018-08-30T13:03:10.365Z,7.37
2018-08-30T13:05:38.965Z,10.40
2018-08-30T13:08:07.061Z,7.20
2018-08-30T13:10:35.601Z,6.13
2018-08-30T13:13:03.783Z,7.70
2018-08-30T13:15:32.094Z,10.97
2018-08-30T13:18:00.398Z,6.57
2018-08-30T13:20:28.773Z,5.90
2018-08-30T13:22:57.567Z,6.80
2018-08-30T13:25:26.168Z,8.17
2018-08-30T13:27:54.364Z,8.20
2018-08-30T13:30:23.190Z,5.80
2018-08-30T13:32:51.436Z,4.30
2018-08-30T13:35:19.948Z,5.93
2018-08-30T13:37:48.254Z,7.00
2018-08-30T13:40:16.443Z,6.33
2018-08-30T13:42:44.734Z,5.97
2018-08-30T13:45:13.282Z,7.63
2018-08-30T13:47:41.614Z,5.10
2018-08-30T13:50:09.916Z,9.70
2018-08-30T13:52:38.368Z,3.87
2018-08-30T13:55:06.730Z,7.37
2018-08-30T13:57:35.390Z,8.07
2018-08-30T14:00:03.698Z,7.20
2018-08-30T14:02:31.544Z,8.40
2018-08-30T14:04:59.942Z,5.20
2018-08-30T14:07:28.439Z,6.23
2018-08-30T14:09:56.877Z,7.83
2018-08-30T14:12:25.323Z,6.73
2018-08-30T14:14:53.787Z,6.40
2018-08-30T14:17:21.813Z,4.20
2018-08-30T14:19:50.577Z,7.00
2018-08-30T14:22:19.275Z,6.00
2018-08-30T14:24:47.702Z,6.60
2018-08-30T14:27:15.951Z,11.97
2018-08-30T14:29:44.264Z,8.20
2018-08-30T14:32:12.594Z,4.30
2018-08-30T14:34:40.910Z,3.13
2018-08-30T14:37:09.207Z,5.07
2018-08-30T14:39:37.536Z,6.13
2018-08-30T14:42:05.859Z,8.30
2018-08-30T14:44:34.151Z,9.97
2018-08-30T14:47:02.475Z,8.53
2018-08-30T14:49:30.886Z,5.00
2018-08-30T14:51:59.225Z,6.73
2018-08-30T14:54:27.712Z,5.80
2018-08-30T14:56:56.090Z,8.67
2018-08-30T14:59:24.454Z,10.20
2018-08-30T15:01:52.781Z,5.40
2018-08-30T15:04:21.072Z,7.77
2018-08-30T15:06:49.581Z,5.67
2018-08-30T15:09:17.774Z,3.20
2018-08-30T15:11:46.016Z,11.83
2018-08-30T15:14:14.359Z,4.20
2018-08-30T15:16:42.662Z,8.30
2018-08-30T15:19:10.983Z,6.03
2018-08-30T15:21:39.294Z,6.60
2018-08-30T15:24:07.624Z,7.63
2018-08-30T15:26:36.098Z,4.70
2018-08-30T15:29:04.416Z,5.30
2018-08-30T15:31:32.801Z,11.33
2018-08-30T15:34:01.452Z,5.40
2018-08-30T15:36:29.594Z,6.30
2018-08-30T15:38:57.950Z,12.00
2018-08-30T15:41:26.387Z,6.70
2018-08-30T15:43:54.662Z,5.90
2018-08-30T15:46:22.948Z,5.03
2018-08-30T15:48:51.656Z,5.17
2018-08-30T15:51:19.844Z,5.50
2018-08-30T15:53:48.134Z,8.53
2018-08-30T15:56:16.418Z,7.93
2018-08-30T15:58:44.706Z,6.73
2018-08-30T16:01:13.016Z,5.03
2018-08-30T16:03:41.282Z,5.97
2018-08-30T16:06:09.707Z,6.10
2018-08-30T16:08:37.999Z,5.80
2018-08-30T16:11:06.952Z,9.13
2018-08-30T16:13:35.130Z,8.53
2018-08-30T16:16:03.397Z,5.93
2018-08-30T16:18:32.352Z,7.07
2018-08-30T16:21:00.608Z,7.77
2018-08-30T16:23:30.356Z,6.10
2018-08-30T16:25:58.776Z,12.83
2018-08-30T16:28:27.873Z,64.27
2018-08-30T16:30:56.242Z,40.37
2018-08-30T16:33:24.538Z,152.17
2018-08-30T16:35:53.103Z,60.63
2018-08-30T16:38:21.437Z,56.70
2018-08-30T16:40:49.762Z,22.37
2018-08-30T16:43:18.249Z,76.77
2018-08-30T16:45:46.878Z,88.03
2018-08-30T16:48:15.834Z,33.10
2018-08-30T16:50:44.152Z,25.00
2018-08-30T16:53:12.594Z,20.33
2018-08-30T16:55:41.149Z,17.00
2018-08-30T16:58:09.344Z,31.50
2018-08-30T17:00:37.653Z,24.50
2018-08-30T17:03:06.629Z,13.20
2018-08-30T17:05:34.906Z,9.00
2018-08-30T17:08:03.215Z,12.70
2018-08-30T17:10:31.585Z,11.23
2018-08-30T17:13:00.021Z,15.23
2018-08-30T17:15:28.332Z,6.90
2018-08-30T17:17:56.746Z,7.90
2018-08-30T17:20:50.466Z,9.83
2018-08-30T17:23:18.758Z,4.97
2018-08-30T17:25:47.092Z,5.87
2018-08-30T17:28:15.366Z,8.00
2018-08-30T17:30:44.060Z,9.10
2018-08-30T17:33:12.360Z,6.97
2018-08-30T17:35:40.719Z,9.47
2018-08-30T17:38:09.034Z,6.63
2018-08-30T17:40:37.338Z,6.20
2018-08-30T17:43:05.934Z,9.77
2018-08-30T17:45:34.452Z,7.80
2018-08-30T17:48:02.538Z,7.33
2018-08-30T17:50:30.934Z,4.90
2018-08-30T17:52:59.296Z,6.77
2018-08-30T17:55:27.660Z,5.43
2018-08-30T17:57:56.202Z,14.73
2018-08-30T18:00:24.540Z,8.47
2018-08-30T18:02:52.822Z,4.70
2018-08-30T18:05:21.142Z,4.97
2018-08-30T18:07:49.536Z,4.13
2018-08-30T18:10:17.918Z,6.37
2018-08-30T18:12:46.326Z,7.87
2018-08-30T18:15:15.567Z,5.40
2018-08-30T18:17:44.764Z,7.83
2018-08-30T18:20:13.114Z,8.37
2018-08-30T18:22:41.395Z,20.13
2018-08-30T18:25:10.518Z,10.90
2018-08-30T18:27:38.829Z,10.20
2018-08-30T18:30:08.672Z,7.67
2018-08-30T18:32:37.013Z,8.67
2018-08-30T18:35:06.921Z,7.50
2018-08-30T18:37:35.237Z,9.07
2018-08-30T18:40:03.589Z,51.40
2018-08-30T18:42:31.899Z,14.00
2018-08-30T18:45:00.205Z,10.33
2018-08-30T18:47:28.562Z,8.23
2018-08-30T18:49:57.073Z,10.60
2018-08-30T18:52:25.346Z,11.20
2018-08-30T18:54:53.642Z,6.80
2018-08-30T18:57:21.920Z,9.93
2018-08-30T18:59:50.263Z,10.60
2018-08-30T19:02:18.539Z,7.00
2018-08-30T19:04:46.986Z,10.47
2018-08-30T19:07:15.402Z,6.00
2018-08-30T19:09:43.868Z,6.77
2018-08-30T19:12:12.155Z,7.87
2018-08-30T19:14:40.450Z,9.43
2018-08-30T19:17:14.236Z,12.80
2018-08-30T19:19:42.545Z,6.17
2018-08-30T19:22:10.924Z,10.40
2018-08-30T19:24:44.592Z,6.60
2018-08-30T19:27:13.094Z,11.70
2018-08-30T19:29:46.916Z,9.03
2018-08-30T19:32:15.200Z,6.50
2018-08-30T19:34:43.518Z,25.17
2018-08-30T19:37:11.816Z,18.60
2018-08-30T19:39:40.104Z,18.23
2018-08-30T19:42:08.401Z,11.80
2018-08-30T19:44:36.698Z,23.60
2018-08-30T19:47:05.274Z,23.77
2018-08-30T19:49:33.551Z,24.40
2018-08-30T19:52:01.875Z,12.43
2018-08-30T19:54:30.240Z,11.03
2018-08-30T19:56:58.588Z,28.90
2018-08-30T19:59:26.892Z,26.10
2018-08-30T20:01:55.262Z,12.77
2018-08-30T20:04:23.552Z,14.27
2018-08-30T20:06:51.846Z,13.93
2018-08-30T20:09:20.235Z,9.10
2018-08-30T20:11:48.426Z,7.90
2018-08-30T20:14:16.692Z,9.00
2018-08-30T20:16:45.098Z,8.23
2018-08-30T20:19:13.404Z,7.53
2018-08-30T20:21:41.708Z,10.03
2018-08-30T20:24:11.183Z,8.20
2018-08-30T20:26:39.487Z,10.60
2018-08-30T20:29:07.784Z,9.00
2018-08-30T20:31:36.104Z,6.90
2018-08-30T20:34:04.405Z,9.77
2018-08-30T20:36:32.702Z,10.30
2018-08-30T20:39:01.034Z,7.10
2018-08-30T20:41:29.494Z,7.00
2018-08-30T20:43:57.775Z,7.57
2018-08-30T20:46:26.206Z,6.77
2018-08-30T20:48:54.494Z,8.50
2018-08-30T20:51:22.805Z,15.03
2018-08-30T20:53:54.614Z,12.53
2018-08-30T20:56:23.394Z,10.57
2018-08-30T20:58:51.678Z,10.73
2018-08-30T21:01:19.971Z,24.07
2018-08-30T21:03:48.245Z,17.40
2018-08-30T21:06:16.609Z,9.53
2018-08-30T21:08:44.909Z,11.33
2018-08-30T21:11:13.212Z,6.07
2018-08-30T21:13:41.581Z,9.87
2018-08-30T21:16:11.193Z,8.47
2018-08-30T21:18:39.518Z,11.07
2018-08-30T21:21:07.879Z,7.87
2018-08-30T21:23:36.078Z,10.00
2018-08-30T21:26:04.627Z,10.80
2018-08-30T21:28:33.029Z,9.80
2018-08-30T21:31:01.332Z,9.07
2018-08-30T21:33:29.717Z,7.83
2018-08-30T21:35:58.005Z,8.30
2018-08-30T21:38:26.286Z,6.50
2018-08-30T21:40:54.554Z,7.07
2018-08-30T21:43:22.887Z,7.40
2018-08-30T21:45:51.206Z,12.17
2018-08-30T21:48:19.490Z,9.50
2018-08-30T21:50:47.769Z,8.70
2018-08-30T21:53:16.054Z,10.40
2018-08-30T21:55:44.374Z,12.67
2018-08-30T21:58:12.667Z,14.50
2018-08-30T22:00:40.977Z,9.00
2018-08-30T22:03:09.289Z,6.60
2018-08-30T22:05:37.886Z,6.00
2018-08-30T22:08:06.268Z,6.67
2018-08-30T22:10:34.601Z,8.67
2018-08-30T22:13:02.906Z,11.50
2018-08-30T22:15:31.246Z,22.43
2018-08-30T22:17:59.571Z,8.60
2018-08-30T22:20:27.847Z,8.30
2018-08-30T22:22:56.136Z,9.07
2018-08-30T22:25:24.449Z,22.73
2018-08-30T22:27:52.742Z,14.93
2018-08-30T22:30:22.335Z,8.17
2018-08-30T22:32:50.690Z,9.87
2018-08-30T22:35:18.961Z,4.80
2018-08-30T22:37:47.250Z,7.87
2018-08-30T22:40:15.613Z,7.17
2018-08-30T22:42:43.815Z,8.77
2018-08-30T22:45:12.196Z,9.97
2018-08-30T22:47:40.590Z,8.83
2018-08-30T22:50:08.862Z,7.13
2018-08-30T22:52:37.135Z,7.53
2018-08-30T22:55:05.447Z,7.63
2018-08-30T22:57:33.823Z,9.17
2018-08-30T23:00:02.090Z,7.90
2018-08-30T23:02:30.337Z,11.70
2018-08-30T23:04:58.693Z,12.03
2018-08-30T23:07:27.082Z,8.83
2018-08-30T23:09:55.367Z,8.10
2018-08-30T23:12:23.657Z,8.80
2018-08-30T23:14:51.974Z,6.80
2018-08-30T23:17:20.251Z,6.90
2018-08-30T23:19:48.568Z,8.00
2018-08-30T23:22:16.895Z,5.27
2018-08-30T23:24:45.175Z,5.40
2018-08-30T23:27:13.484Z,5.90
2018-08-30T23:29:41.812Z,4.77
2018-08-30T23:32:12.756Z,10.47
2018-08-30T23:34:41.141Z,9.37
2018-08-30T23:37:09.419Z,7.60
2018-08-30T23:39:38.012Z,10.67
2018-08-30T23:42:06.278Z,7.73
2018-08-30T23:44:39.520Z,12.43
2018-08-30T23:47:07.829Z,9.33
2018-08-30T23:49:36.306Z,10.40
2018-08-30T23:52:04.611Z,5.80
2018-08-30T23:54:32.884Z,8.93
2018-08-30T23:57:01.180Z,6.70
2018-08-30T23:59:40.986Z,6.27
